Time;durP1;ratioP1;P1;durP2;ratioP2;P2;SDS_P1;SDS_P2;PMS_P1;PMS_P2;Temp;Humidity;BMP_temperature;BMP_pressure;BME280_temperature;BME280_humidity;BME280_pressure;Samples;Min_cycle;Max_cycle;Signal;HPM_P1;HPM_P2
2021/08/14 00:02:50;;;;;;;0.10;0.10;;;;;;;14.44;90.06;102173.63;10513651;28;20115;-63
2021/08/14 00:07:51;;;;;;;0.10;0.10;;;;;;;14.38;90.57;102169.72;10516407;28;20033;-64
2021/08/14 00:12:51;;;;;;;0.10;0.10;;;;;;;14.34;90.94;102173.72;10519721;28;20040;-64
2021/08/14 00:17:52;;;;;;;0.10;0.10;;;;;;;14.30;90.61;102176.81;10518150;28;20410;-60
2021/08/14 00:22:52;;;;;;;0.10;0.10;;;;;;;14.23;91.43;102182.78;10516846;28;20463;-62
2021/08/14 00:27:53;;;;;;;0.10;0.10;;;;;;;14.18;91.39;102170.84;10543278;28;20027;-63
2021/08/14 00:32:54;;;;;;;0.10;0.10;;;;;;;14.12;91.82;102174.94;10542454;28;20062;-63
2021/08/14 00:37:54;;;;;;;0.08;0.08;;;;;;;14.07;91.95;102176.38;10534411;28;20077;-64
2021/08/14 00:42:54;;;;;;;0.10;0.10;;;;;;;14.02;92.03;102177.69;10534047;28;20020;-63
2021/08/14 00:47:55;;;;;;;0.10;0.10;;;;;;;13.98;91.50;102167.41;10533739;28;20016;-64
2021/08/14 00:52:55;;;;;;;0.10;0.10;;;;;;;13.96;91.98;102174.75;10513526;28;20282;-63
2021/08/14 00:57:56;;;;;;;0.10;0.10;;;;;;;13.94;91.94;102169.56;10523677;28;20021;-64
2021/08/14 01:02:57;;;;;;;0.10;0.10;;;;;;;13.93;91.95;102164.31;10530492;28;20023;-62
2021/08/14 01:07:57;;;;;;;0.10;0.10;;;;;;;13.93;91.91;102158.97;10533049;28;20032;-63
2021/08/14 01:12:59;;;;;;;0.10;0.10;;;;;;;13.94;91.69;102156.16;10528068;28;20035;-63
2021/08/14 01:17:59;;;;;;;0.10;0.10;;;;;;;13.96;91.85;102154.19;10512753;28;20055;-62
2021/08/14 01:22:59;;;;;;;0.10;0.10;;;;;;;13.96;91.66;102146.16;10515335;28;20108;-63
2021/08/14 01:28:00;;;;;;;0.00;0.00;;;;;;;13.98;91.72;102140.63;10553181;28;20656;-64
2021/08/14 01:33:01;;;;;;;0.10;0.10;;;;;;;14.01;91.83;102134.97;10537304;28;20386;-62
2021/08/14 01:38:02;;;;;;;0.08;0.08;;;;;;;14.02;91.97;102129.47;10521888;28;20074;-63
2021/08/14 01:43:02;;;;;;;0.13;0.13;;;;;;;14.02;91.72;102129.47;10525628;28;20098;-64
2021/08/14 01:48:03;;;;;;;0.10;0.10;;;;;;;14.03;91.72;102141.03;10506878;28;20429;-63
2021/08/14 01:53:03;;;;;;;0.10;0.10;;;;;;;14.03;91.81;102135.66;10512920;28;20020;-64
2021/08/14 01:58:03;;;;;;;0.10;0.10;;;;;;;14.04;91.51;102127.47;10512854;28;20368;-63
2021/08/14 02:03:04;;;;;;;0.10;0.10;;;;;;;14.03;91.67;102123.09;10533913;28;20110;-62
2021/08/14 02:08:04;;;;;;;0.10;0.10;;;;;;;14.01;92.21;102114.38;10523176;28;20028;-62
2021/08/14 02:13:09;;;;;;;0.10;0.10;;;;;;;14.01;92.16;102117.03;10535933;28;20459;-62
2021/08/14 02:18:09;;;;;;;0.10;0.10;;;;;;;14.02;92.04;102109.84;10547920;28;20012;-64
2021/08/14 02:23:10;;;;;;;0.10;0.10;;;;;;;14.01;91.73;102103.66;10539959;28;20394;-64
2021/08/14 02:28:10;;;;;;;0.10;0.10;;;;;;;14.01;91.75;102109.00;10539200;28;20016;-64
2021/08/14 02:33:10;;;;;;;0.10;0.10;;;;;;;14.00;91.69;102112.69;10539859;28;20032;-64
2021/08/14 02:38:11;;;;;;;0.00;0.00;;;;;;;14.00;91.48;102090.44;10540411;28;20024;-63
2021/08/14 02:43:11;;;;;;;0.10;0.10;;;;;;;13.97;91.74;102086.22;10539530;28;20110;-64
2021/08/14 02:48:12;;;;;;;0.10;0.10;;;;;;;13.97;91.66;102088.88;10540332;28;20035;-62
2021/08/14 02:53:13;;;;;;;0.10;0.10;;;;;;;13.96;91.35;102084.53;10531890;28;20447;-62
2021/08/14 02:58:14;;;;;;;0.10;0.10;;;;;;;13.94;91.55;102073.13;10495494;28;20076;-61
2021/08/14 03:03:14;;;;;;;0.10;0.10;;;;;;;13.92;91.81;102077.78;10516386;28;20085;-63
2021/08/14 03:08:14;;;;;;;0.10;0.10;;;;;;;13.95;92.39;102080.16;10520136;28;20035;-62
2021/08/14 03:13:15;;;;;;;0.10;0.10;;;;;;;13.97;92.28;102078.16;10510284;28;20332;-63
2021/08/14 03:18:24;;;;;;;0.10;0.10;;;;;;;14.00;92.93;102083.22;10544683;28;20051;-62
2021/08/14 03:23:25;;;;;;;0.10;0.10;;;;;;;14.03;92.71;102077.56;10537215;28;20019;-63
2021/08/14 03:28:25;;;;;;;0.10;0.10;;;;;;;14.03;92.72;102085.59;10519310;28;20097;-62
2021/08/14 03:33:25;;;;;;;0.10;0.10;;;;;;;14.07;92.43;102079.94;10536800;28;20470;-62
2021/08/14 03:38:26;;;;;;;0.10;0.10;;;;;;;14.10;92.52;102076.94;10537863;28;20032;-62
2021/08/14 03:43:26;;;;;;;0.10;0.10;;;;;;;14.13;92.54;102079.31;10536844;28;20448;-63
2021/08/14 03:48:26;;;;;;;0.10;0.10;;;;;;;14.14;92.26;102075.69;10550777;28;20106;-63
2021/08/14 03:53:27;;;;;;;0.10;0.10;;;;;;;14.17;92.39;102078.06;10530839;28;20026;-61
2021/08/14 03:58:32;;;;;;;0.10;0.10;;;;;;;14.20;92.40;102075.06;10536573;28;20028;-63
2021/08/14 04:03:32;;;;;;;0.10;0.10;;;;;;;14.23;92.20;102072.91;10536430;28;20751;-62
2021/08/14 04:08:32;;;;;;;0.10;0.10;;;;;;;14.27;92.55;102081.47;10536386;28;20085;-63
2021/08/14 04:13:34;;;;;;;0.10;0.10;;;;;;;14.29;92.53;102079.50;10535803;28;20043;-62
2021/08/14 04:18:34;;;;;;;0.10;0.10;;;;;;;14.32;92.82;102086.41;10562519;28;20262;-61
2021/08/14 04:23:35;;;;;;;0.00;0.00;;;;;;;14.35;92.58;102084.25;10535263;28;20500;-61
2021/08/14 04:28:35;;;;;;;0.10;0.10;;;;;;;14.40;92.82;102081.13;10535330;28;20467;-62
2021/08/14 04:33:35;;;;;;;0.10;0.10;;;;;;;14.44;92.72;102077.97;10535103;28;20165;-61
2021/08/14 04:38:36;;;;;;;0.10;0.10;;;;;;;14.48;92.65;102065.09;10535273;28;20401;-61
2021/08/14 04:43:36;;;;;;;0.10;0.10;;;;;;;14.53;92.35;102072.69;10534796;28;20039;-63
2021/08/14 04:48:36;;;;;;;0.10;0.10;;;;;;;14.60;92.58;102066.59;10522379;28;20046;-60
2021/08/14 04:53:37;;;;;;;0.10;0.10;;;;;;;14.66;91.66;102068.63;10509205;28;20274;-62
2021/08/14 04:58:37;;;;;;;0.00;0.00;;;;;;;14.75;91.69;102057.94;10475145;28;20487;-63
2021/08/14 05:03:37;;;;;;;0.10;0.10;;;;;;;14.84;91.65;102071.28;10520264;28;20262;-60
2021/08/14 05:08:38;;;;;;;0.10;0.10;;;;;;;14.93;91.41;102064.13;10515144;28;20021;-61
2021/08/14 05:13:38;;;;;;;0.10;0.10;;;;;;;15.03;90.99;102064.84;10511618;28;20115;-62
2021/08/14 05:18:38;;;;;;;0.10;0.10;;;;;;;15.12;90.55;102063.88;10545575;28;20019;-60
2021/08/14 05:23:38;;;;;;;0.10;0.10;;;;;;;15.23;90.22;102068.16;10556142;28;20102;-62
2021/08/14 05:28:39;;;;;;;0.10;0.10;;;;;;;15.33;89.42;102060.84;10534079;28;20028;-62
2021/08/14 05:33:39;;;;;;;0.00;0.00;;;;;;;15.48;89.26;102065.59;10534446;28;20024;-63
2021/08/14 05:38:39;;;;;;;0.10;0.10;;;;;;;15.58;88.30;102060.94;10533970;28;20530;-58
2021/08/14 05:43:40;;;;;;;0.07;0.07;;;;;;;15.72;87.91;102057.66;10533935;28;20035;-63
2021/08/14 05:48:40;;;;;;;0.10;0.10;;;;;;;15.86;87.25;102058.06;10556258;28;20024;-62
2021/08/14 05:53:40;;;;;;;0.10;0.10;;;;;;;16.02;86.94;102063.44;10533293;28;20108;-62
2021/08/14 05:58:40;;;;;;;0.10;0.10;;;;;;;16.18;85.84;102068.03;10533165;28;20024;-61
2021/08/14 06:03:41;;;;;;;0.10;0.10;;;;;;;16.40;84.89;102066.53;10533866;28;20028;-67
2021/08/14 06:08:41;;;;;;;0.10;0.10;;;;;;;16.66;84.11;102055.59;10540223;28;20489;-61
2021/08/14 06:13:41;;;;;;;0.10;0.10;;;;;;;16.99;83.64;102056.44;10539935;28;20391;-61
2021/08/14 06:18:42;;;;;;;0.10;0.10;;;;;;;17.29;81.97;102057.53;10540646;28;20386;-60
2021/08/14 06:23:42;;;;;;;0.00;0.00;;;;;;;17.57;80.60;102059.75;10539422;28;20012;-61
2021/08/14 06:28:43;;;;;;;0.10;0.10;;;;;;;17.82;79.72;102045.19;10533383;28;20240;-61
2021/08/14 06:33:46;;;;;;;0.10;0.10;;;;;;;17.94;78.13;102044.78;10532110;28;20028;-62
2021/08/14 06:38:46;;;;;;;0.08;0.08;;;;;;;18.07;77.60;102037.78;10532643;28;20020;-61
2021/08/14 06:43:47;;;;;;;0.10;0.10;;;;;;;18.44;77.47;102027.22;10536863;28;20028;-61
2021/08/14 06:48:47;;;;;;;0.10;0.10;;;;;;;18.68;75.67;102018.06;10528052;28;20208;-61
2021/08/14 06:53:48;;;;;;;0.00;0.00;;;;;;;18.83;74.81;102024.34;10537621;28;20506;-61
2021/08/14 06:58:48;;;;;;;0.03;0.03;;;;;;;18.97;73.25;102010.03;10538265;28;20031;-61
2021/08/14 07:03:49;;;;;;;0.00;0.00;;;;;;;19.98;70.96;102012.09;10537352;28;20030;-61
2021/08/14 07:08:49;;;;;;;0.00;0.00;;;;;;;21.22;65.73;102012.44;10537545;28;20016;-61
2021/08/14 07:13:51;;;;;;;0.00;0.00;;;;;;;22.30;63.25;102013.41;10537132;28;20038;-62
2021/08/14 07:18:51;;;;;;;0.00;0.00;;;;;;;24.09;60.84;102003.88;10533049;28;20012;-62
2021/08/14 07:23:51;;;;;;;0.10;0.10;;;;;;;24.90;57.05;102002.13;10511928;28;20077;-62
2021/08/14 07:28:51;;;;;;;0.00;0.00;;;;;;;25.61;54.33;101997.09;10503716;28;20024;-62
2021/08/14 07:33:52;;;;;;;0.10;0.10;;;;;;;26.19;52.13;101999.19;10508430;28;20051;-62
2021/08/14 07:38:52;;;;;;;0.10;0.10;;;;;;;26.16;50.98;102005.09;10510031;28;20421;-62
2021/08/14 07:43:52;;;;;;;0.10;0.10;;;;;;;26.39;51.68;102010.59;10502633;28;20085;-63
2021/08/14 07:48:53;;;;;;;0.10;0.10;;;;;;;26.61;51.91;101996.38;10546750;28;20536;-63
2021/08/14 07:53:53;;;;;;;0.10;0.10;;;;;;;26.86;50.87;101990.66;10536022;28;20043;-63
2021/08/14 07:58:53;;;;;;;0.10;0.10;;;;;;;27.01;50.40;101982.78;10542986;22;20407;-59
2021/08/14 08:03:55;;;;;;;0.10;0.10;;;;;;;27.41;50.22;101968.31;10494609;28;20032;-60
2021/08/14 08:08:55;;;;;;;0.10;0.10;;;;;;;26.86;50.38;101977.00;10476353;28;20048;-59
2021/08/14 08:13:55;;;;;;;0.00;0.00;;;;;;;25.84;52.71;101975.38;10494405;28;20306;-60
2021/08/14 08:18:55;;;;;;;0.00;0.00;;;;;;;25.35;54.80;101979.19;10493991;28;20157;-60
2021/08/14 08:23:56;;;;;;;0.10;0.10;;;;;;;25.21;54.79;101978.50;10493583;28;20406;-59
2021/08/14 08:28:56;;;;;;;0.00;0.00;;;;;;;25.55;54.39;101987.94;10493161;28;20208;-62
2021/08/14 08:33:56;;;;;;;0.00;0.00;;;;;;;25.60;55.17;101976.31;10493516;28;20031;-60
2021/08/14 08:38:57;;;;;;;0.08;0.08;;;;;;;25.74;55.19;101972.31;10493400;28;20043;-60
2021/08/14 08:43:58;;;;;;;0.00;0.00;;;;;;;25.10;54.24;101974.63;10493218;28;20043;-60
2021/08/14 08:49:00;;;;;;;0.00;0.00;;;;;;;24.69;54.97;101967.13;10493158;28;20032;-60
2021/08/14 08:54:02;;;;;;;0.10;0.10;;;;;;;24.67;56.19;101969.22;10493453;28;20049;-60
2021/08/14 08:59:02;;;;;;;0.10;0.10;;;;;;;24.93;56.29;101960.78;10493409;28;20043;-59
2021/08/14 09:04:23;;;;;;;0.00;0.00;;;;;;;25.27;56.47;101964.78;10491967;28;20020;-60
2021/08/14 09:09:24;;;;;;;0.00;0.00;;;;;;;25.44;55.25;101955.97;10492284;28;20028;-59
2021/08/14 09:14:25;;;;;;;0.10;0.10;;;;;;;25.70;56.17;101960.22;10492367;28;20411;-61
2021/08/14 09:19:26;;;;;;;0.10;0.10;;;;;;;25.38;55.29;101955.00;10492366;28;20262;-61
2021/08/14 09:24:38;;;;;;;0.10;0.10;;;;;;;24.94;58.06;101956.16;10492647;28;20074;-61
2021/08/14 09:29:39;;;;;;;0.00;0.00;;;;;;;24.58;58.50;101952.34;10465100;28;20079;-60
2021/08/14 09:34:46;;;;;;;0.00;0.00;;;;;;;24.30;57.70;101953.66;10451006;28;20025;-60
2021/08/14 09:39:59;;;;;;;0.00;0.00;;;;;;;23.99;59.24;101945.53;10436993;28;20021;-60
2021/08/14 09:45:17;;;;;;;0.10;0.10;;;;;;;23.67;59.58;101942.78;10438930;28;20197;-61
2021/08/14 09:50:17;;;;;;;0.10;0.10;;;;;;;23.44;59.16;101938.75;10441592;28;20429;-60
2021/08/14 09:55:26;;;;;;;0.10;0.10;;;;;;;23.31;60.56;101941.53;10458736;28;20074;-63
2021/08/14 10:00:28;;;;;;;0.10;0.10;;;;;;;23.05;60.09;101937.91;10458179;28;20490;-61
2021/08/14 10:05:33;;;;;;;0.10;0.10;;;;;;;23.09;61.63;101938.28;10457533;28;20419;-61
2021/08/14 10:10:33;;;;;;;0.10;0.10;;;;;;;22.91;60.30;101927.25;10456991;28;20032;-62
2021/08/14 10:15:34;;;;;;;0.00;0.00;;;;;;;22.78;61.82;101925.44;10438896;28;20383;-59
2021/08/14 10:20:34;;;;;;;0.00;0.00;;;;;;;22.71;61.91;101927.31;10457178;28;20053;-58
2021/08/14 10:25:38;;;;;;;0.00;0.00;;;;;;;22.74;62.60;101921.47;10457198;28;20021;-60
2021/08/14 10:30:50;;;;;;;0.10;0.10;;;;;;;22.70;61.40;101918.34;10456679;28;20107;-62
2021/08/14 10:35:50;;;;;;;0.00;0.00;;;;;;;22.53;61.57;101919.84;10456723;28;20041;-61
2021/08/14 10:41:01;;;;;;;0.00;0.00;;;;;;;22.29;63.68;101919.47;10455747;28;20383;-62
2021/08/14 10:46:34;;;;;;;0.00;0.00;;;;;;;22.24;63.06;101904.88;10455992;28;20068;-61
2021/08/14 10:52:00;;;;;;;0.00;0.00;;;;;;;22.38;62.03;101914.66;10455384;28;20439;-59
2021/08/14 10:57:05;;;;;;;0.10;0.10;;;;;;;22.41;62.83;101906.09;10452339;28;20067;-60
2021/08/14 11:02:06;;;;;;;0.10;0.10;;;;;;;22.30;63.09;101902.13;10455146;28;20041;-60
2021/08/14 11:07:21;;;;;;;0.00;0.00;;;;;;;22.53;62.64;101892.69;10453447;28;20036;-60
2021/08/14 11:12:32;;;;;;;0.00;0.00;;;;;;;22.95;63.33;101882.34;10453339;28;20021;-60
2021/08/14 11:17:36;;;;;;;0.00;0.00;;;;;;;23.21;61.05;101884.94;10455048;28;20017;-61
2021/08/14 11:22:43;;;;;;;0.00;0.00;;;;;;;23.62;61.39;101886.34;10454766;28;20387;-60
2021/08/14 11:28:08;;;;;;;0.00;0.00;;;;;;;23.77;61.41;101875.19;10454525;28;20029;-61
2021/08/14 11:33:10;;;;;;;0.00;0.00;;;;;;;24.15;60.84;101882.38;10454231;28;20039;-58
2021/08/14 11:38:12;;;;;;;0.00;0.00;;;;;;;24.60;58.40;101882.16;10436319;28;20025;-61
2021/08/14 11:43:17;;;;;;;0.05;0.05;;;;;;;24.38;58.98;101879.03;10453921;28;20083;-61
2021/08/14 11:48:17;;;;;;;0.00;0.00;;;;;;;23.94;59.42;101878.19;10456889;28;20538;-60
2021/08/14 11:53:26;;;;;;;0.00;0.00;;;;;;;23.61;58.80;101881.13;10459771;28;20115;-61
2021/08/14 11:58:30;;;;;;;0.00;0.00;;;;;;;23.53;60.79;101884.09;10453029;28;20029;-61
2021/08/14 12:03:30;;;;;;;0.10;0.10;;;;;;;23.54;60.33;101872.19;10473989;28;20029;-62
2021/08/14 12:08:33;;;;;;;0.00;0.00;;;;;;;23.42;59.73;101882.94;10493751;28;20374;-60
2021/08/14 12:13:35;;;;;;;0.00;0.00;;;;;;;23.35;58.88;101868.53;10492935;28;20581;-60
2021/08/14 12:18:37;;;;;;;0.00;0.00;;;;;;;23.25;58.83;101874.47;10431722;28;20021;-64
2021/08/14 12:23:38;;;;;;;0.00;0.00;;;;;;;23.38;58.73;101874.38;10450016;28;20108;-63
2021/08/14 12:28:41;;;;;;;0.00;0.00;;;;;;;23.47;59.76;101873.06;10471714;28;20024;-63
2021/08/14 12:33:50;;;;;;;0.00;0.00;;;;;;;23.40;58.02;101864.13;10527924;28;20069;-64
2021/08/14 12:38:51;;;;;;;0.00;0.00;;;;;;;23.34;59.10;101867.72;10515691;28;20099;-64
2021/08/14 12:43:52;;;;;;;0.00;0.00;;;;;;;23.52;59.87;101874.28;10534436;28;20035;-64
2021/08/14 12:49:15;;;;;;;0.00;0.00;;;;;;;23.81;58.00;101873.69;10534484;28;20023;-64
2021/08/14 12:54:15;;;;;;;0.00;0.00;;;;;;;23.93;58.58;101865.63;10534271;28;20059;-64
2021/08/14 12:59:16;;;;;;;0.10;0.10;;;;;;;23.92;58.56;101859.34;10529570;28;20062;-64
2021/08/14 13:04:16;;;;;;;0.00;0.00;;;;;;;23.81;59.44;101857.34;10515659;28;20094;-64
2021/08/14 13:09:17;;;;;;;0.00;0.00;;;;;;;23.57;59.06;101856.25;10533858;28;20386;-62
2021/08/14 13:14:17;;;;;;;0.00;0.00;;;;;;;23.31;59.52;101861.88;10537172;28;20394;-64
2021/08/14 13:19:18;;;;;;;0.00;0.00;;;;;;;23.05;59.94;101853.66;10542425;28;20165;-65
2021/08/14 13:24:19;;;;;;;0.00;0.00;;;;;;;23.13;60.38;101858.03;10541999;28;20028;-64
2021/08/14 13:29:20;;;;;;;0.00;0.00;;;;;;;23.35;61.54;101855.78;10537801;28;20103;-64
2021/08/14 13:34:20;;;;;;;0.00;0.00;;;;;;;23.25;60.22;101850.00;10541494;28;20102;-63
2021/08/14 13:39:21;;;;;;;0.00;0.00;;;;;;;23.01;60.22;101847.00;10541771;28;20047;-64
2021/08/14 13:44:22;;;;;;;0.00;0.00;;;;;;;22.69;60.18;101842.50;10541331;28;20035;-63
2021/08/14 13:49:22;;;;;;;0.10;0.10;;;;;;;22.41;62.03;101832.78;10541975;28;20028;-63
2021/08/14 13:54:22;;;;;;;0.05;0.05;;;;;;;22.15;62.19;101820.09;10541439;28;20024;-63
2021/08/14 13:59:23;;;;;;;0.03;0.03;;;;;;;21.86;61.64;101816.78;10539722;22;20052;-63
2021/08/14 14:04:23;;;;;;;0.00;0.00;;;;;;;21.63;62.56;101824.53;10460573;28;20071;-63
2021/08/14 14:09:28;;;;;;;0.00;0.00;;;;;;;21.53;64.31;101827.66;10457546;28;20064;-62
2021/08/14 14:14:28;;;;;;;0.00;0.00;;;;;;;21.42;64.19;101820.13;10456579;28;20025;-63
2021/08/14 14:19:29;;;;;;;0.00;0.00;;;;;;;21.33;65.38;101815.94;10456833;28;20021;-60
2021/08/14 14:24:30;;;;;;;0.00;0.00;;;;;;;21.25;65.83;101808.81;10455452;28;20029;-63
2021/08/14 14:29:30;;;;;;;0.00;0.00;;;;;;;21.15;66.12;101830.91;10522635;28;20039;-60
2021/08/14 14:34:32;;;;;;;0.00;0.00;;;;;;;20.76;72.99;101848.66;10520694;28;20020;-63
2021/08/14 14:39:33;;;;;;;0.10;0.10;;;;;;;20.22;74.61;101852.13;10539382;28;20028;-63
2021/08/14 14:44:34;;;;;;;0.00;0.00;;;;;;;19.90;76.64;101857.09;10538465;28;20113;-63
2021/08/14 14:49:35;;;;;;;0.00;0.00;;;;;;;19.80;77.05;101848.47;10538911;28;20165;-63
2021/08/14 14:54:36;;;;;;;0.00;0.00;;;;;;;19.85;77.08;101837.91;10538435;28;20032;-65
2021/08/14 14:59:36;;;;;;;0.00;0.00;;;;;;;19.83;77.07;101842.66;10501615;28;20095;-64
2021/08/14 15:04:36;;;;;;;0.05;0.05;;;;;;;19.81;77.04;101839.34;10496034;28;20016;-63
2021/08/14 15:09:37;;;;;;;0.00;0.00;;;;;;;20.02;76.45;101834.91;10496206;28;20032;-62
2021/08/14 15:14:37;;;;;;;0.00;0.00;;;;;;;20.21;75.37;101836.06;10495499;28;20029;-63
2021/08/14 15:19:38;;;;;;;0.00;0.00;;;;;;;20.32;75.94;101832.81;10495511;28;20103;-63
2021/08/14 15:24:38;;;;;;;0.00;0.00;;;;;;;20.44;74.67;101838.50;10495343;28;20029;-63
2021/08/14 15:29:38;;;;;;;0.10;0.10;;;;;;;20.42;75.63;101830.59;10494851;28;20033;-63
2021/08/14 15:34:39;;;;;;;0.00;0.00;;;;;;;20.41;75.17;101834.31;10494604;28;20024;-63
2021/08/14 15:39:39;;;;;;;0.00;0.00;;;;;;;20.39;74.11;101836.41;10493419;28;20036;-63
2021/08/14 15:44:41;;;;;;;0.00;0.00;;;;;;;20.40;74.15;101838.06;10534780;28;20023;-63
2021/08/14 15:49:41;;;;;;;0.10;0.10;;;;;;;20.60;73.72;101832.78;10506570;28;20036;-62
2021/08/14 15:54:41;;;;;;;0.10;0.10;;;;;;;20.79;73.13;101837.44;10494409;28;20356;-63
2021/08/14 15:59:42;;;;;;;0.00;0.00;;;;;;;20.86;71.45;101834.78;10493819;28;20410;-64
2021/08/14 16:04:42;;;;;;;0.00;0.00;;;;;;;20.92;72.07;101831.25;10486197;28;20024;-63
2021/08/14 16:09:42;;;;;;;0.00;0.00;;;;;;;20.83;69.33;101834.31;10493354;28;20037;-63
2021/08/14 16:14:42;;;;;;;0.10;0.10;;;;;;;20.82;68.41;101832.66;10505388;28;20016;-62
2021/08/14 16:19:43;;;;;;;0.00;0.00;;;;;;;20.78;67.94;101824.13;10519088;28;20035;-62
2021/08/14 16:24:43;;;;;;;0.00;0.00;;;;;;;20.67;68.52;101835.53;10534991;28;20379;-63
2021/08/14 16:29:44;;;;;;;0.00;0.00;;;;;;;20.60;67.44;101830.09;10534610;28;20284;-63
2021/08/14 16:34:44;;;;;;;0.00;0.00;;;;;;;20.51;68.06;101837.50;10534349;28;20094;-63
2021/08/14 16:39:45;;;;;;;0.00;0.00;;;;;;;20.29;67.75;101834.03;10534670;28;20270;-58
2021/08/14 16:44:46;;;;;;;0.10;0.10;;;;;;;20.15;69.57;101839.56;10497967;28;20033;-60
2021/08/14 16:49:46;;;;;;;0.10;0.10;;;;;;;20.01;68.99;101841.34;10491911;28;20036;-61
2021/08/14 16:54:47;;;;;;;0.00;0.00;;;;;;;19.92;69.53;101846.06;10492686;28;20024;-62
2021/08/14 16:59:47;;;;;;;0.00;0.00;;;;;;;19.86;69.76;101844.97;10494436;28;20047;-62
2021/08/14 17:04:47;;;;;;;0.10;0.10;;;;;;;19.84;69.75;101838.13;10493503;28;20025;-62
2021/08/14 17:09:48;;;;;;;0.10;0.10;;;;;;;19.76;69.45;101847.19;10492457;28;20395;-63
2021/08/14 17:14:49;;;;;;;0.10;0.10;;;;;;;19.64;70.25;101849.56;10486032;28;20025;-62
2021/08/14 17:19:49;;;;;;;0.10;0.10;;;;;;;19.57;71.23;101847.81;10491915;28;20032;-63
2021/08/14 17:24:49;;;;;;;0.07;0.07;;;;;;;19.50;72.15;101841.53;10491673;28;20025;-63
2021/08/14 17:29:50;;;;;;;0.05;0.05;;;;;;;19.44;72.34;101843.13;10491498;28;20369;-61
2021/08/14 17:34:50;;;;;;;0.10;0.10;;;;;;;19.39;71.22;101838.28;10491938;28;20391;-62
2021/08/14 17:39:50;;;;;;;0.00;0.00;;;;;;;19.22;71.15;101836.88;10491988;28;20029;-61
2021/08/14 17:44:51;;;;;;;0.10;0.10;;;;;;;19.08;71.95;101832.34;10485409;28;20056;-62
2021/08/14 17:49:51;;;;;;;0.10;0.10;;;;;;;18.95;72.32;101833.03;10491473;28;20310;-63
2021/08/14 17:54:51;;;;;;;0.00;0.00;;;;;;;18.81;73.16;101823.13;10490377;28;20033;-63
2021/08/14 17:59:51;;;;;;;0.10;0.10;;;;;;;18.69;73.44;101833.53;10493838;28;20479;-63
2021/08/14 18:04:52;;;;;;;0.10;0.10;;;;;;;18.57;73.92;101833.16;10498107;28;20028;-62
2021/08/14 18:09:52;;;;;;;0.10;0.10;;;;;;;18.46;73.26;101837.16;10498646;28;20047;-62
2021/08/14 18:14:52;;;;;;;0.10;0.10;;;;;;;18.33;73.94;101829.75;10477047;28;20028;-61
2021/08/14 18:19:53;;;;;;;0.10;0.10;;;;;;;18.22;74.15;101826.66;10455326;28;20017;-59
2021/08/14 18:24:53;;;;;;;0.10;0.10;;;;;;;18.12;74.17;101826.09;10454221;28;20649;-62
2021/08/14 18:29:54;;;;;;;0.03;0.03;;;;;;;18.00;74.73;101826.53;10437038;28;20029;-61
2021/08/14 18:34:54;;;;;;;0.10;0.10;;;;;;;17.91;75.25;101827.63;10453847;28;20478;-61
2021/08/14 18:39:54;;;;;;;0.10;0.10;;;;;;;17.83;75.58;101833.09;10455144;28;20017;-62
2021/08/14 18:44:56;;;;;;;0.10;0.10;;;;;;;17.73;75.91;101837.91;10466625;28;20444;-59
2021/08/14 18:49:56;;;;;;;0.10;0.10;;;;;;;17.65;75.97;101836.94;10453456;28;20115;-61
2021/08/14 18:54:57;;;;;;;0.10;0.10;;;;;;;17.59;76.26;101843.03;10453628;28;20104;-61
2021/08/14 18:59:57;;;;;;;0.10;0.10;;;;;;;17.56;76.54;101842.56;10453103;28;20116;-61
2021/08/14 19:04:57;;;;;;;0.10;0.10;;;;;;;17.49;76.70;101838.94;10451153;28;20439;-61
2021/08/14 19:09:57;;;;;;;0.10;0.10;;;;;;;17.39;76.84;101852.63;10480078;28;20040;-60
2021/08/14 19:14:58;;;;;;;0.10;0.10;;;;;;;17.28;77.39;101844.94;10471035;28;20029;-59
2021/08/14 19:19:58;;;;;;;0.10;0.10;;;;;;;17.19;77.91;101839.66;10491355;28;20490;-61
2021/08/14 19:24:59;;;;;;;0.10;0.10;;;;;;;17.07;78.51;101851.81;10465924;28;20021;-61
2021/08/14 19:29:59;;;;;;;0.10;0.10;;;;;;;17.04;79.37;101837.88;10452461;28;20079;-61
2021/08/14 19:34:59;;;;;;;0.10;0.10;;;;;;;16.98;80.07;101837.56;10451664;28;20083;-61
2021/08/14 19:40:00;;;;;;;0.10;0.10;;;;;;;16.91;80.48;101830.38;10452106;28;20024;-61
2021/08/14 19:45:00;;;;;;;0.10;0.10;;;;;;;16.82;80.86;101842.22;10457031;28;20021;-61
2021/08/14 19:50:00;;;;;;;0.10;0.10;;;;;;;16.73;81.38;101852.97;10462865;28;20024;-61
2021/08/14 19:55:01;;;;;;;0.10;0.10;;;;;;;16.72;81.84;101839.69;10458605;28;20399;-61
2021/08/14 20:00:02;;;;;;;0.10;0.10;;;;;;;16.65;81.56;101841.41;10450861;28;20029;-61
2021/08/14 20:05:07;;;;;;;0.10;0.10;;;;;;;16.62;82.41;101836.38;10463627;28;20070;-61
2021/08/14 20:10:08;;;;;;;0.10;0.10;;;;;;;16.65;82.10;101834.16;10520226;22;20048;-65
2021/08/14 20:15:09;;;;;;;0.10;0.10;;;;;;;16.68;82.04;101839.19;10534775;28;20016;-62
2021/08/14 20:20:09;;;;;;;0.00;0.00;;;;;;;16.73;81.93;101839.53;10515660;28;20024;-64
2021/08/14 20:25:10;;;;;;;0.10;0.10;;;;;;;16.75;81.48;101839.34;10489400;28;20040;-64
2021/08/14 20:30:11;;;;;;;0.10;0.10;;;;;;;16.71;81.17;101827.25;10492735;28;20351;-64
2021/08/14 20:35:11;;;;;;;0.10;0.10;;;;;;;16.62;81.42;101834.53;10474387;28;20425;-63
2021/08/14 20:40:12;;;;;;;0.10;0.10;;;;;;;16.52;81.88;101848.19;10473385;28;20360;-63
2021/08/14 20:45:16;;;;;;;0.10;0.10;;;;;;;16.43;82.23;101829.53;10491672;28;20037;-62
2021/08/14 20:50:16;;;;;;;0.10;0.10;;;;;;;16.30;82.90;101830.94;10496985;28;20016;-62
2021/08/14 20:55:17;;;;;;;0.10;0.10;;;;;;;16.20;82.98;101821.38;10491839;28;20081;-61
2021/08/14 21:00:17;;;;;;;0.10;0.10;;;;;;;16.09;83.63;101817.22;10491671;28;20482;-62
2021/08/14 21:05:17;;;;;;;0.10;0.10;;;;;;;15.97;84.35;101810.50;10490910;28;20055;-62
2021/08/14 21:10:18;;;;;;;0.10;0.10;;;;;;;15.88;84.63;101814.22;10492117;28;20399;-63
2021/08/14 21:15:18;;;;;;;0.10;0.10;;;;;;;15.82;84.77;101803.16;10531620;28;20103;-63
2021/08/14 21:20:19;;;;;;;0.00;0.00;;;;;;;15.72;85.75;101812.41;10490813;28;20115;-63
2021/08/14 21:25:19;;;;;;;0.10;0.10;;;;;;;15.59;85.85;101820.91;10490645;28;20048;-63
2021/08/14 21:30:20;;;;;;;0.10;0.10;;;;;;;15.47;86.65;101819.56;10496064;28;20109;-63
2021/08/14 21:35:20;;;;;;;0.10;0.10;;;;;;;15.39;87.06;101817.75;10536323;28;20286;-63
2021/08/14 21:40:21;;;;;;;0.10;0.10;;;;;;;15.35;86.79;101811.84;10510521;28;20425;-63
2021/08/14 21:45:22;;;;;;;0.10;0.10;;;;;;;15.34;87.55;101798.59;10539658;28;20027;-63
2021/08/14 21:50:22;;;;;;;0.10;0.10;;;;;;;15.33;87.87;101792.41;10539719;28;20300;-63
2021/08/14 21:55:22;;;;;;;0.00;0.00;;;;;;;15.34;88.18;101787.88;10516232;28;20020;-63
2021/08/14 22:00:30;;;;;;;0.10;0.10;;;;;;;15.36;88.01;101786.69;10539075;28;20187;-62
2021/08/14 22:05:30;;;;;;;0.10;0.10;;;;;;;15.35;87.59;101786.84;10535447;28;20032;-63
2021/08/14 22:10:35;;;;;;;0.10;0.10;;;;;;;15.30;87.48;101787.38;10516026;28;20038;-63
2021/08/14 22:15:37;;;;;;;0.10;0.10;;;;;;;15.26;87.51;101786.00;10537921;28;20458;-62
2021/08/14 22:20:39;;;;;;;0.10;0.10;;;;;;;15.20;87.43;101788.53;10491076;28;20097;-63
2021/08/14 22:25:39;;;;;;;0.10;0.10;;;;;;;15.08;87.71;101791.53;10521774;28;20169;-63
2021/08/14 22:30:40;;;;;;;0.10;0.10;;;;;;;15.00;88.41;101785.31;10534138;28;20127;-63
2021/08/14 22:35:40;;;;;;;0.10;0.10;;;;;;;14.94;88.24;101784.94;10496603;28;20327;-63
2021/08/14 22:40:44;;;;;;;0.10;0.10;;;;;;;14.91;89.13;101779.06;10495025;28;20039;-63
2021/08/14 22:45:47;;;;;;;0.10;0.10;;;;;;;14.87;88.79;101767.84;10517742;28;20047;-63
2021/08/14 22:50:47;;;;;;;0.10;0.10;;;;;;;14.85;88.56;101764.47;10525634;28;20254;-63
2021/08/14 22:55:55;;;;;;;0.00;0.00;;;;;;;14.81;88.92;101763.16;10494386;28;20025;-63
2021/08/14 23:00:55;;;;;;;0.10;0.10;;;;;;;14.77;89.00;101758.25;10494159;28;20338;-63
2021/08/14 23:05:56;;;;;;;0.10;0.10;;;;;;;14.71;89.84;101760.59;10493840;28;20406;-63